createdAt,value
2023-04-11T00:01:06.082Z,16.58
2023-04-11T00:03:32.376Z,16.56
2023-04-11T00:05:58.554Z,16.56
2023-04-11T00:08:24.685Z,16.56
2023-04-11T00:10:50.793Z,16.56
2023-04-11T00:13:16.890Z,16.57
2023-04-11T00:15:42.990Z,16.55
2023-04-11T00:18:09.093Z,16.55
2023-04-11T00:20:35.201Z,16.55
2023-04-11T00:23:01.321Z,16.55
2023-04-11T00:25:27.425Z,16.54
2023-04-11T00:27:53.530Z,16.54
2023-04-11T00:30:19.652Z,16.54
2023-04-11T00:32:45.810Z,16.53
2023-04-11T00:35:11.947Z,16.54
2023-04-11T00:37:38.054Z,16.54
2023-04-11T00:40:04.137Z,16.53
2023-04-11T00:42:30.232Z,16.53
2023-04-11T00:44:56.348Z,16.52
2023-04-11T00:47:22.479Z,16.52
2023-04-11T00:49:48.601Z,16.52
2023-04-11T00:52:14.710Z,16.52
2023-04-11T00:54:40.806Z,16.52
2023-04-11T00:57:06.923Z,16.51
2023-04-11T00:59:33.088Z,16.51
2023-04-11T01:01:59.328Z,16.50
2023-04-11T01:04:25.471Z,16.51
2023-04-11T01:06:51.577Z,16.50
2023-04-11T01:09:17.693Z,16.49
2023-04-11T01:11:43.795Z,16.49
2023-04-11T01:14:09.914Z,16.49
2023-04-11T01:16:36.064Z,16.49
2023-04-11T01:19:02.189Z,16.48
2023-04-11T01:21:28.287Z,16.48
2023-04-11T01:23:54.376Z,16.47
2023-04-11T01:26:20.464Z,16.47
2023-04-11T01:28:46.575Z,16.47
2023-04-11T01:31:12.704Z,16.46
2023-04-11T01:33:38.864Z,16.47
2023-04-11T01:36:05.006Z,16.46
2023-04-11T01:38:31.175Z,16.46
2023-04-11T01:40:57.545Z,16.46
2023-04-11T01:43:23.738Z,16.46
2023-04-11T01:45:49.832Z,16.45
2023-04-11T01:48:16.084Z,16.45
2023-04-11T01:50:42.671Z,16.45
2023-04-11T01:53:08.774Z,16.46
2023-04-11T01:55:34.885Z,16.45
2023-04-11T01:58:01.061Z,16.45
2023-04-11T02:00:27.321Z,16.43
2023-04-11T02:02:53.512Z,16.43
2023-04-11T02:05:19.822Z,16.44
2023-04-11T02:07:45.913Z,16.43
2023-04-11T02:10:12.015Z,16.43
2023-04-11T02:12:38.130Z,16.42
2023-04-11T02:15:04.225Z,16.43
2023-04-11T02:17:30.389Z,16.42
2023-04-11T02:19:56.519Z,16.43
2023-04-11T02:22:22.605Z,16.42
2023-04-11T02:24:48.706Z,16.42
2023-04-11T02:27:14.822Z,16.42
2023-04-11T02:29:40.948Z,16.39
2023-04-11T02:32:07.170Z,16.40
2023-04-11T02:34:33.414Z,16.40
2023-04-11T02:36:59.504Z,16.40
2023-04-11T02:39:25.597Z,16.39
2023-04-11T02:41:51.733Z,16.39
2023-04-11T02:44:17.818Z,16.38
2023-04-11T02:46:43.947Z,16.38
2023-04-11T02:49:10.101Z,16.38
2023-04-11T02:51:36.186Z,16.38
2023-04-11T02:54:02.301Z,16.37
2023-04-11T02:56:28.438Z,16.38
2023-04-11T02:58:54.773Z,16.37
2023-04-11T03:01:21.070Z,16.36
2023-04-11T03:03:47.358Z,16.37
2023-04-11T03:06:13.516Z,16.36
2023-04-11T03:08:39.624Z,16.36
2023-04-11T03:11:05.734Z,16.35
2023-04-11T03:13:31.843Z,16.36
2023-04-11T03:15:57.965Z,16.35
2023-04-11T03:18:24.130Z,16.35
2023-04-11T03:20:50.222Z,16.36
2023-04-11T03:23:16.321Z,16.34
2023-04-11T03:25:42.454Z,16.34
2023-04-11T03:28:08.545Z,16.35
2023-04-11T03:30:34.629Z,16.34
2023-04-11T03:33:00.876Z,16.34
2023-04-11T03:35:27.087Z,16.33
2023-04-11T03:37:53.191Z,16.34
2023-04-11T03:40:19.295Z,16.33
2023-04-11T03:42:45.381Z,16.33
2023-04-11T03:45:11.480Z,16.31
2023-04-11T03:47:37.619Z,16.31
2023-04-11T03:50:03.725Z,16.30
2023-04-11T03:52:29.837Z,16.30
2023-04-11T03:54:55.964Z,16.31
2023-04-11T03:57:22.051Z,16.30
2023-04-11T03:59:48.137Z,16.29
2023-04-11T04:02:15.116Z,16.30
2023-04-11T04:04:41.402Z,16.29
2023-04-11T04:07:07.579Z,16.29
2023-04-11T04:09:33.697Z,16.28
2023-04-11T04:11:59.802Z,16.29
2023-04-11T04:14:25.891Z,16.30
2023-04-11T04:16:52.121Z,16.29
2023-04-11T04:19:18.346Z,16.28
2023-04-11T04:21:44.435Z,16.26
2023-04-11T04:24:10.565Z,16.26
2023-04-11T04:26:36.669Z,16.25
2023-04-11T04:29:02.765Z,16.27
2023-04-11T04:31:28.939Z,16.26
2023-04-11T04:33:55.246Z,16.25
2023-04-11T04:36:21.787Z,16.25
2023-04-11T04:38:47.914Z,16.25
2023-04-11T04:41:14.001Z,16.24
2023-04-11T04:43:40.085Z,16.24
2023-04-11T04:46:06.210Z,16.24
2023-04-11T04:48:32.319Z,16.24
2023-04-11T04:50:58.405Z,16.24
2023-04-11T04:53:24.564Z,16.23
2023-04-11T04:55:50.667Z,16.24
2023-04-11T04:58:16.772Z,16.23
2023-04-11T05:00:42.872Z,16.23
2023-04-11T05:03:09.088Z,16.23
2023-04-11T05:05:35.297Z,16.22
2023-04-11T05:08:01.576Z,16.21
2023-04-11T05:10:27.662Z,16.22
2023-04-11T05:12:53.771Z,16.22
2023-04-11T05:15:19.873Z,16.21
2023-04-11T05:17:45.986Z,16.22
2023-04-11T05:20:12.130Z,16.19
2023-04-11T05:22:38.248Z,16.20
2023-04-11T05:25:04.348Z,16.19
2023-04-11T05:27:30.448Z,16.19
2023-04-11T05:29:56.553Z,16.19
2023-04-11T05:32:22.674Z,16.19
2023-04-11T05:34:48.786Z,16.18
2023-04-11T05:37:14.896Z,16.18
2023-04-11T05:39:40.995Z,16.18
2023-04-11T05:42:08.081Z,16.17
2023-04-11T05:44:34.246Z,16.17
2023-04-11T05:47:00.327Z,16.17
2023-04-11T05:49:26.423Z,16.16
2023-04-11T05:51:52.543Z,16.15
2023-04-11T05:54:18.641Z,16.16
2023-04-11T05:56:44.730Z,16.15
2023-04-11T05:59:10.844Z,16.15
2023-04-11T06:01:36.961Z,16.15
2023-04-11T06:04:03.352Z,16.14
2023-04-11T06:06:29.811Z,16.15
2023-04-11T06:08:56.030Z,16.14
2023-04-11T06:11:22.115Z,16.13
2023-04-11T06:13:48.755Z,16.12
2023-04-11T06:16:14.922Z,16.12
2023-04-11T06:18:41.102Z,16.13
2023-04-11T06:21:07.258Z,16.13
2023-04-11T06:23:33.358Z,16.11
2023-04-11T06:25:59.455Z,16.11
2023-04-11T06:28:25.572Z,16.11
2023-04-11T06:30:51.699Z,16.09
2023-04-11T06:33:17.787Z,16.09
2023-04-11T06:35:43.908Z,16.09
2023-04-11T06:38:10.021Z,16.09
2023-04-11T06:40:36.113Z,16.08
2023-04-11T06:43:02.260Z,16.09
2023-04-11T06:45:28.380Z,16.08
2023-04-11T06:47:54.537Z,16.07
2023-04-11T06:50:20.683Z,16.07
2023-04-11T06:52:46.784Z,16.07
2023-04-11T06:55:12.883Z,16.06
2023-04-11T06:57:38.985Z,16.07
2023-04-11T07:00:05.073Z,16.05
2023-04-11T07:02:31.354Z,16.04
2023-04-11T07:04:57.585Z,16.04
2023-04-11T07:07:23.757Z,16.04
2023-04-11T07:09:49.860Z,16.04
2023-04-11T07:12:15.979Z,16.03
2023-04-11T07:14:42.099Z,16.03
2023-04-11T07:17:08.190Z,16.03
2023-04-11T07:19:34.289Z,16.01
2023-04-11T07:22:00.545Z,16.00
2023-04-11T07:24:26.692Z,16.01
2023-04-11T07:26:52.802Z,16.01
2023-04-11T07:29:18.920Z,16.00
2023-04-11T07:31:45.203Z,15.99
2023-04-11T07:34:11.441Z,15.98
2023-04-11T07:36:37.526Z,15.98
2023-04-11T07:39:03.609Z,15.99
2023-04-11T07:41:29.724Z,15.98
2023-04-11T07:43:55.988Z,15.97
2023-04-11T07:46:22.251Z,15.97
2023-04-11T07:48:48.371Z,15.98
2023-04-11T07:51:14.498Z,15.95
2023-04-11T07:53:40.601Z,15.96
2023-04-11T07:56:06.743Z,15.97
2023-04-11T07:58:32.828Z,15.96
2023-04-11T08:00:58.913Z,15.95
2023-04-11T08:03:25.205Z,15.96
2023-04-11T08:05:51.432Z,15.95
2023-04-11T08:08:17.535Z,15.95
2023-04-11T08:10:43.942Z,15.96
2023-04-11T08:13:10.101Z,15.96
2023-04-11T08:15:36.192Z,15.96
2023-04-11T08:18:02.868Z,15.96
2023-04-11T08:20:28.972Z,15.94
2023-04-11T08:22:55.078Z,15.94
2023-04-11T08:25:21.191Z,15.93
2023-04-11T08:27:47.302Z,15.91
2023-04-11T08:30:13.425Z,15.92
2023-04-11T08:32:39.595Z,15.90
2023-04-11T08:35:05.851Z,15.91
2023-04-11T08:37:31.959Z,15.88
2023-04-11T08:39:58.082Z,15.90
2023-04-11T08:42:24.170Z,15.90
2023-04-11T08:44:50.272Z,15.89
2023-04-11T08:47:16.397Z,15.90
2023-04-11T08:49:42.490Z,15.92
2023-04-11T08:52:08.569Z,15.92
2023-04-11T08:54:34.688Z,15.93
2023-04-11T08:57:00.789Z,15.93
2023-04-11T08:59:26.913Z,15.94
2023-04-11T09:01:53.260Z,15.94
2023-04-11T09:04:19.510Z,15.93
2023-04-11T09:06:45.601Z,15.92
2023-04-11T09:09:11.718Z,15.91
2023-04-11T09:11:37.816Z,15.94
2023-04-11T09:14:03.913Z,15.92
2023-04-11T09:16:30.062Z,15.90
2023-04-11T09:18:56.395Z,15.89
2023-04-11T09:21:22.743Z,15.89
2023-04-11T09:23:48.983Z,15.90
2023-04-11T09:26:15.107Z,15.90
2023-04-11T09:28:41.225Z,15.90
2023-04-11T09:31:07.407Z,15.89
2023-04-11T09:33:33.559Z,15.89
2023-04-11T09:35:59.652Z,15.88
2023-04-11T09:38:25.786Z,15.87
2023-04-11T09:40:51.889Z,15.87
2023-04-11T09:43:20.280Z,15.87
2023-04-11T09:45:54.161Z,15.86
2023-04-11T09:48:22.125Z,15.86
2023-04-11T09:50:52.933Z,15.84
2023-04-11T09:53:19.073Z,15.85
2023-04-11T09:55:45.322Z,15.86
2023-04-11T09:58:11.497Z,15.86
2023-04-11T10:00:37.604Z,15.84
2023-04-11T10:03:03.927Z,15.84
2023-04-11T10:05:30.186Z,15.82
2023-04-11T10:07:56.270Z,15.84
2023-04-11T10:10:22.373Z,15.85
2023-04-11T10:12:48.483Z,15.84
2023-04-11T10:15:14.577Z,15.84
2023-04-11T10:17:40.730Z,15.83
2023-04-11T10:20:06.905Z,15.81
2023-04-11T10:22:32.996Z,15.83
2023-04-11T10:24:59.086Z,15.81
2023-04-11T10:27:25.216Z,15.83
2023-04-11T10:29:51.856Z,15.82
2023-04-11T10:32:18.114Z,15.82
2023-04-11T10:34:44.223Z,15.81
2023-04-11T10:37:10.342Z,15.83
2023-04-11T10:39:36.437Z,15.82
2023-04-11T10:42:02.547Z,15.84
2023-04-11T10:44:28.665Z,15.84
2023-04-11T10:46:54.836Z,15.83
2023-04-11T10:49:21.021Z,15.83
2023-04-11T10:51:47.106Z,15.81
2023-04-11T10:54:13.201Z,15.82
2023-04-11T10:56:39.320Z,15.83
2023-04-11T10:59:05.412Z,15.82
2023-04-11T11:01:37.555Z,15.83
2023-04-11T11:04:09.986Z,15.82
2023-04-11T11:06:46.037Z,15.81
2023-04-11T11:09:13.188Z,15.82
2023-04-11T11:11:39.288Z,15.82
2023-04-11T11:14:05.392Z,15.83
2023-04-11T11:16:31.547Z,15.82
2023-04-11T11:18:57.764Z,15.82
2023-04-11T11:21:27.891Z,15.83
2023-04-11T11:23:54.902Z,15.84
2023-04-11T11:26:21.246Z,15.82
2023-04-11T11:28:47.340Z,15.84
2023-04-11T11:31:13.506Z,15.83
2023-04-11T11:33:39.596Z,15.82
2023-04-11T11:36:05.694Z,15.81
2023-04-11T11:38:31.797Z,15.81
2023-04-11T11:40:57.890Z,15.81
2023-04-11T11:43:23.966Z,15.81
2023-04-11T11:45:50.130Z,15.81
2023-04-11T11:48:16.260Z,15.81
2023-04-11T11:50:42.362Z,15.81
2023-04-11T11:53:08.526Z,15.83
2023-04-11T11:55:34.616Z,15.82
2023-04-11T11:58:00.732Z,15.83
2023-04-11T12:00:26.855Z,15.82
2023-04-11T12:02:53.223Z,15.84
2023-04-11T12:05:19.469Z,15.83
2023-04-11T12:07:45.637Z,15.83
2023-04-11T12:10:11.979Z,15.84
2023-04-11T12:12:38.196Z,15.83
2023-04-11T12:15:04.318Z,15.83
2023-04-11T12:17:30.459Z,15.84
2023-04-11T12:19:56.559Z,15.84
2023-04-11T12:22:22.671Z,15.85
2023-04-11T12:24:48.778Z,15.85
2023-04-11T12:27:14.909Z,15.86
2023-04-11T12:29:41.147Z,15.85
2023-04-11T12:32:07.259Z,15.86
2023-04-11T12:34:33.345Z,15.85
2023-04-11T12:36:59.468Z,15.85
2023-04-11T12:39:25.599Z,15.85
2023-04-11T12:41:51.738Z,15.84
2023-04-11T12:44:17.871Z,15.86
2023-04-11T12:46:44.008Z,15.86
2023-04-11T12:49:10.140Z,15.85
2023-04-11T12:51:36.268Z,15.87
2023-04-11T12:54:02.418Z,15.86
2023-04-11T12:56:28.547Z,15.85
2023-04-11T12:58:54.809Z,15.85
2023-04-11T13:01:20.992Z,15.85
2023-04-11T13:03:47.261Z,15.87
2023-04-11T13:06:13.504Z,15.86
2023-04-11T13:08:39.613Z,15.85
2023-04-11T13:11:05.711Z,15.86
2023-04-11T13:13:31.836Z,15.86
2023-04-11T13:15:58.030Z,15.86
2023-04-11T13:18:24.133Z,15.87
2023-04-11T13:20:50.246Z,15.87
2023-04-11T13:23:17.380Z,15.86
2023-04-11T13:25:43.694Z,15.86
2023-04-11T13:28:11.351Z,15.87
2023-04-11T13:30:37.433Z,15.88
2023-04-11T13:33:03.523Z,15.88
2023-04-11T13:35:29.751Z,15.88
2023-04-11T13:37:55.850Z,15.88
2023-04-11T13:40:22.112Z,15.89
2023-04-11T13:42:48.230Z,15.88
2023-04-11T13:45:14.324Z,15.89
2023-04-11T13:47:40.539Z,15.89
2023-04-11T13:50:06.722Z,15.89
2023-04-11T13:52:32.849Z,15.90
2023-04-11T13:54:58.949Z,15.90
2023-04-11T13:57:25.068Z,15.91
2023-04-11T13:59:51.197Z,15.90
2023-04-11T14:02:17.336Z,15.89
2023-04-11T14:04:43.471Z,15.91
2023-04-11T14:07:09.578Z,15.90
2023-04-11T14:09:35.683Z,15.91
2023-04-11T14:12:01.802Z,15.90
2023-04-11T14:14:27.894Z,15.91
2023-04-11T14:16:54.097Z,15.91
2023-04-11T14:19:20.303Z,15.90
2023-04-11T14:21:46.398Z,15.90
2023-04-11T14:24:12.510Z,15.91
2023-04-11T14:26:38.637Z,15.90
2023-04-11T14:29:04.813Z,15.91
2023-04-11T14:31:31.002Z,15.92
2023-04-11T14:33:57.525Z,15.92
2023-04-11T14:36:23.969Z,15.91
2023-04-11T14:38:50.132Z,15.92
2023-04-11T14:41:16.302Z,15.93
2023-04-11T14:43:42.398Z,15.92
2023-04-11T14:46:08.547Z,15.91
2023-04-11T14:48:34.699Z,15.91
2023-04-11T14:51:00.813Z,15.91
2023-04-11T14:53:27.006Z,15.93
2023-04-11T14:55:53.116Z,15.94
2023-04-11T14:58:19.226Z,15.94
2023-04-11T15:00:45.329Z,15.94
2023-04-11T15:03:11.521Z,15.95
2023-04-11T15:05:37.682Z,15.94
2023-04-11T15:08:03.777Z,15.95
2023-04-11T15:10:29.893Z,15.96
2023-04-11T15:12:55.977Z,15.94
2023-04-11T15:15:22.080Z,15.94
2023-04-11T15:17:48.239Z,15.95
2023-04-11T15:20:14.417Z,15.96
2023-04-11T15:22:41.512Z,15.94
2023-04-11T15:25:07.887Z,15.94
2023-04-11T15:27:34.009Z,15.96
2023-04-11T15:30:00.111Z,15.95
2023-04-11T15:32:26.286Z,15.95
2023-04-11T15:34:52.429Z,15.95
2023-04-11T15:37:18.527Z,15.96
2023-04-11T15:39:45.128Z,15.96
2023-04-11T15:42:11.232Z,15.98
2023-04-11T15:44:37.325Z,15.96
2023-04-11T15:47:03.561Z,15.97
2023-04-11T15:49:29.704Z,15.96
2023-04-11T15:51:55.809Z,15.97
2023-04-11T15:54:22.006Z,15.98
2023-04-11T15:56:48.097Z,15.98
2023-04-11T15:59:14.194Z,15.98
2023-04-11T16:01:40.618Z,15.98
2023-04-11T16:04:06.970Z,15.98
2023-04-11T16:06:33.170Z,15.99
2023-04-11T16:08:59.308Z,16.00
2023-04-11T16:11:25.400Z,16.01
2023-04-11T16:13:51.501Z,16.02
2023-04-11T16:16:17.650Z,16.01
2023-04-11T16:18:43.770Z,16.02
2023-04-11T16:21:09.854Z,16.02
2023-04-11T16:23:35.958Z,16.01
2023-04-11T16:26:02.057Z,16.02
2023-04-11T16:28:28.151Z,16.01
2023-04-11T16:30:55.531Z,16.01
2023-04-11T16:33:22.568Z,16.02
2023-04-11T16:35:48.770Z,16.02
2023-04-11T16:38:14.877Z,16.03
2023-04-11T16:40:40.969Z,16.03
2023-04-11T16:43:07.072Z,16.03
2023-04-11T16:45:33.298Z,16.01
2023-04-11T16:47:59.479Z,16.04
2023-04-11T16:50:25.614Z,16.04
2023-04-11T16:52:51.737Z,16.03
2023-04-11T16:55:17.827Z,16.04
2023-04-11T16:57:43.935Z,16.05
2023-04-11T17:00:10.033Z,16.05
2023-04-11T17:02:36.261Z,16.05
2023-04-11T17:05:02.435Z,16.05
2023-04-11T17:07:28.563Z,16.05
2023-04-11T17:09:54.656Z,16.06
2023-04-11T17:12:20.745Z,16.06
2023-04-11T17:14:46.856Z,16.06
2023-04-11T17:17:12.956Z,16.06
2023-04-11T17:19:39.051Z,16.06
2023-04-11T17:22:05.173Z,16.05
2023-04-11T17:24:31.323Z,16.06
2023-04-11T17:26:57.423Z,16.06
2023-04-11T17:29:23.689Z,16.06
2023-04-11T17:31:49.810Z,16.06
2023-04-11T17:34:15.925Z,16.07
2023-04-11T17:36:42.048Z,16.06
2023-04-11T17:39:08.153Z,16.06
2023-04-11T17:41:34.237Z,16.07
2023-04-11T17:44:00.475Z,16.07
2023-04-11T17:46:26.662Z,16.08
2023-04-11T17:48:52.831Z,16.07
2023-04-11T17:51:19.339Z,16.08
2023-04-11T17:53:45.432Z,16.07
2023-04-11T17:56:11.518Z,16.07
2023-04-11T17:58:37.637Z,16.08
2023-04-11T18:01:03.733Z,16.08
2023-04-11T18:03:29.981Z,16.07
2023-04-11T18:05:56.394Z,16.08
2023-04-11T18:08:32.246Z,16.07
2023-04-11T18:11:08.607Z,16.08
2023-04-11T18:13:34.709Z,16.08
2023-04-11T18:16:00.861Z,16.08
2023-04-11T18:18:26.990Z,16.09
2023-04-11T18:20:53.080Z,16.08
2023-04-11T18:23:19.185Z,16.09
2023-04-11T18:25:45.315Z,16.09
2023-04-11T18:28:11.401Z,16.10
2023-04-11T18:30:37.493Z,16.09
2023-04-11T18:33:03.633Z,16.11
2023-04-11T18:35:29.743Z,16.10
2023-04-11T18:37:55.904Z,16.11
2023-04-11T18:40:22.116Z,16.10
2023-04-11T18:42:48.886Z,16.11
2023-04-11T18:45:15.765Z,16.09
2023-04-11T18:47:42.038Z,16.11
2023-04-11T18:50:08.258Z,16.11
2023-04-11T18:55:00.545Z,16.12
2023-04-11T18:57:28.195Z,16.12
2023-04-11T18:59:56.956Z,16.12
2023-04-11T19:02:23.603Z,16.15
2023-04-11T19:04:50.874Z,16.15
2023-04-11T19:07:17.139Z,16.15
2023-04-11T19:09:43.248Z,16.15
2023-04-11T19:12:09.338Z,16.14
2023-04-11T19:14:35.489Z,16.14
2023-04-11T19:17:01.995Z,16.14
2023-04-11T19:19:28.140Z,16.14
2023-04-11T19:21:54.247Z,16.13
2023-04-11T19:24:20.362Z,16.13
2023-04-11T19:26:46.463Z,16.13
2023-04-11T19:29:12.600Z,16.14
2023-04-11T19:31:38.744Z,16.12
2023-04-11T19:34:04.892Z,16.12
2023-04-11T19:36:30.997Z,16.13
2023-04-11T19:38:57.752Z,16.12
2023-04-11T19:41:23.854Z,16.13
2023-04-11T19:43:49.946Z,16.12
2023-04-11T19:46:16.104Z,16.11
2023-04-11T19:48:42.254Z,16.12
2023-04-11T19:51:08.346Z,16.13
2023-04-11T19:53:34.523Z,16.12
2023-04-11T19:56:00.611Z,16.12
2023-04-11T19:58:26.707Z,16.11
2023-04-11T20:00:52.854Z,16.13
2023-04-11T20:03:19.194Z,16.12
2023-04-11T20:05:45.502Z,16.11
2023-04-11T20:08:11.626Z,16.11
2023-04-11T20:10:37.719Z,16.11
2023-04-11T20:13:03.821Z,16.11
2023-04-11T20:15:29.928Z,16.11
2023-04-11T20:17:56.056Z,16.11
2023-04-11T20:20:22.156Z,16.10
2023-04-11T20:22:48.270Z,16.10
2023-04-11T20:25:14.493Z,16.11
2023-04-11T20:27:40.695Z,16.09
2023-04-11T20:30:06.851Z,16.09
2023-04-11T20:32:33.011Z,16.10
2023-04-11T20:34:59.158Z,16.10
2023-04-11T20:37:25.277Z,16.09
2023-04-11T20:39:51.370Z,16.09
2023-04-11T20:42:17.521Z,16.09
2023-04-11T20:44:43.715Z,16.08
2023-04-11T20:47:09.876Z,16.08
2023-04-11T20:49:35.971Z,16.08
2023-04-11T20:52:02.093Z,16.08
2023-04-11T20:54:28.187Z,16.09
2023-04-11T20:56:54.294Z,16.08
2023-04-11T20:59:20.479Z,16.09
2023-04-11T21:01:46.655Z,16.07
2023-04-11T21:04:12.989Z,16.08
2023-04-11T21:06:39.208Z,16.08
2023-04-11T21:09:05.299Z,16.07
2023-04-11T21:11:31.396Z,16.08
2023-04-11T21:13:57.665Z,16.07
2023-04-11T21:16:24.041Z,16.08
2023-04-11T21:18:50.189Z,16.07
2023-04-11T21:21:16.382Z,16.08
2023-04-11T21:23:42.497Z,16.08
2023-04-11T21:26:08.592Z,16.08
2023-04-11T21:28:34.711Z,16.08
2023-04-11T21:31:00.814Z,16.07
2023-04-11T21:33:26.963Z,16.06
2023-04-11T21:35:53.345Z,16.06
2023-04-11T21:38:19.523Z,16.06
2023-04-11T21:40:45.624Z,16.06
2023-04-11T21:43:11.805Z,16.06
2023-04-11T21:45:37.898Z,16.07
2023-04-11T21:48:04.030Z,16.07
2023-04-11T21:50:30.165Z,16.06
2023-04-11T21:52:56.426Z,16.07
2023-04-11T21:55:22.529Z,16.07
2023-04-11T21:57:49.121Z,16.06
2023-04-11T22:00:15.224Z,16.05
2023-04-11T22:02:41.471Z,16.05
2023-04-11T22:05:08.078Z,16.06
2023-04-11T22:07:34.256Z,16.06
2023-04-11T22:10:00.363Z,16.05
2023-04-11T22:12:26.475Z,16.06
2023-04-11T22:14:52.574Z,16.05
2023-04-11T22:17:18.681Z,16.05
2023-04-11T22:19:44.794Z,16.04
2023-04-11T22:22:10.899Z,16.04
2023-04-11T22:24:37.001Z,16.04
2023-04-11T22:27:03.131Z,16.04
2023-04-11T22:29:29.245Z,16.05
2023-04-11T22:31:55.358Z,16.04
2023-04-11T22:34:21.506Z,16.05
2023-04-11T22:36:47.594Z,16.03
2023-04-11T22:39:13.705Z,16.04
2023-04-11T22:41:39.830Z,16.04
2023-04-11T22:44:05.917Z,16.04
2023-04-11T22:46:32.054Z,16.03
2023-04-11T22:48:58.175Z,16.02
2023-04-11T22:51:24.281Z,16.03
2023-04-11T22:53:50.369Z,16.03
2023-04-11T22:56:16.477Z,16.02
2023-04-11T22:58:42.568Z,16.02
2023-04-11T23:01:08.707Z,16.02
2023-04-11T23:03:34.881Z,16.02
2023-04-11T23:06:02.426Z,16.02
2023-04-11T23:08:28.508Z,16.02
2023-04-11T23:10:54.620Z,16.02
2023-04-11T23:13:20.716Z,16.02
2023-04-11T23:15:46.819Z,16.02
2023-04-11T23:18:12.963Z,16.02
2023-04-11T23:20:39.049Z,16.01
2023-04-11T23:23:05.151Z,16.01
2023-04-11T23:25:31.267Z,16.01
2023-04-11T23:27:57.356Z,16.00
2023-04-11T23:30:24.461Z,16.00
2023-04-11T23:32:50.584Z,16.01
2023-04-11T23:35:16.740Z,15.98
2023-04-11T23:37:42.877Z,16.00
2023-04-11T23:40:08.970Z,16.00
2023-04-11T23:42:35.071Z,16.00
2023-04-11T23:45:01.170Z,16.00
2023-04-11T23:47:27.342Z,15.98
2023-04-11T23:49:53.465Z,16.00
2023-04-11T23:52:19.623Z,15.99
2023-04-11T23:54:45.755Z,16.00
2023-04-11T23:57:11.872Z,15.98
2023-04-11T23:59:37.980Z,15.98
